Time;durP1;ratioP1;P1;durP2;ratioP2;P2;SDS_P1;SDS_P2;PMS_P1;PMS_P2;Temp;Humidity;BMP_temperature;BMP_pressure;BME280_temperature;BME280_humidity;BME280_pressure;Samples;Min_cycle;Max_cycle;Signal;HPM_P1;HPM_P2
2022/09/10 00:02:08;;;;;;;9.57;2.30;;;;;22.20;100695.00;;;;5074347;28;20195;-81
2022/09/10 00:04:35;;;;;;;2.17;1.65;;;;;22.20;100697.00;;;;5082439;28;20199;-82
2022/09/10 00:07:02;;;;;;;4.95;1.60;;;;;22.20;100692.00;;;;5071984;28;20203;-81
2022/09/10 00:09:29;;;;;;;6.53;1.95;;;;;22.20;100699.00;;;;5078840;28;20190;-81
2022/09/10 00:11:57;;;;;;;4.50;2.05;;;;;22.20;100699.00;;;;5069420;28;20218;-81
2022/09/10 00:14:24;;;;;;;4.95;1.88;;;;;22.20;100697.00;;;;5073636;28;20203;-81
2022/09/10 00:16:51;;;;;;;2.90;1.98;;;;;22.10;100697.00;;;;5089321;28;20198;-81
2022/09/10 00:19:20;;;;;;;5.25;2.08;;;;;22.10;100699.00;;;;5070502;28;20198;-81
2022/09/10 00:21:49;;;;;;;3.22;2.10;;;;;22.10;100691.00;;;;5069608;28;20224;-81
2022/09/10 00:24:16;;;;;;;3.95;2.10;;;;;22.10;100691.00;;;;5072328;28;20205;-81
2022/09/10 00:26:44;;;;;;;5.80;1.95;;;;;22.10;100682.00;;;;5085424;28;20195;-80
2022/09/10 00:29:17;;;;;;;4.88;2.25;;;;;22.10;100686.00;;;;5076763;28;20254;-81
2022/09/10 00:31:44;;;;;;;6.28;2.15;;;;;22.10;100674.00;;;;5069485;28;20680;-81
2022/09/10 00:34:12;;;;;;;4.55;2.15;;;;;22.10;100684.00;;;;5073593;28;20587;-81
2022/09/10 00:36:43;;;;;;;4.43;2.33;;;;;22.00;100687.00;;;;5085430;28;20684;-81
2022/09/10 00:39:14;;;;;;;6.78;2.40;;;;;22.00;100693.00;;;;5088827;28;20761;-81
2022/09/10 00:41:43;;;;;;;4.07;2.25;;;;;22.00;100689.00;;;;5079381;28;20209;-80
2022/09/10 00:44:44;;;;;;;3.80;2.40;;;;;21.90;100696.00;;;;5089080;28;20206;-81
2022/09/10 00:47:16;;;;;;;3.13;1.80;;;;;22.00;100688.00;;;;5085402;28;20206;-81
2022/09/10 00:49:48;;;;;;;5.07;2.78;;;;;22.00;100692.00;;;;5086398;28;20660;-80
2022/09/10 00:52:17;;;;;;;3.97;2.55;;;;;22.00;100691.00;;;;5075165;28;20223;-80
2022/09/10 00:54:46;;;;;;;4.65;3.35;;;;;22.00;100694.00;;;;5086737;28;20206;-80
2022/09/10 00:57:18;;;;;;;4.20;2.83;;;;;22.00;100695.00;;;;5088603;28;20231;-81
2022/09/10 00:59:48;;;;;;;4.68;2.75;;;;;22.00;100697.00;;;;5076020;28;20272;-80
2022/09/10 01:02:15;;;;;;;5.10;3.35;;;;;21.90;100687.00;;;;5075625;28;20203;-80
2022/09/10 01:04:43;;;;;;;5.90;3.45;;;;;22.00;100696.00;;;;5082953;28;20217;-81
2022/09/10 01:07:13;;;;;;;4.95;2.70;;;;;21.90;100695.00;;;;5089233;28;20201;-80
2022/09/10 01:09:42;;;;;;;4.18;2.67;;;;;21.90;100692.00;;;;5083657;28;20203;-81
2022/09/10 01:12:24;;;;;;;5.97;3.72;;;;;21.90;100694.00;;;;5074235;28;20680;-80
2022/09/10 01:15:09;;;;;;;4.72;3.70;;;;;21.80;100678.00;;;;5085583;28;20758;-80
2022/09/10 01:17:45;;;;;;;7.10;4.05;;;;;21.90;100676.00;;;;5072964;28;20199;-80
2022/09/10 01:20:46;;;;;;;6.05;4.03;;;;;21.80;100683.00;;;;5073323;28;20194;-80
2022/09/10 01:23:56;;;;;;;4.57;3.55;;;;;21.80;100689.00;;;;5069327;28;20276;-80
2022/09/10 01:26:35;;;;;;;5.68;3.88;;;;;21.80;100684.00;;;;5072620;28;20207;-80
2022/09/10 01:29:11;;;;;;;5.10;3.88;;;;;21.80;100689.00;;;;5073293;28;20222;-81
2022/09/10 01:31:48;;;;;;;7.78;4.97;;;;;21.90;100686.00;;;;5067983;28;20224;-80
2022/09/10 01:34:21;;;;;;;4.82;4.10;;;;;21.80;100695.00;;;;5086793;28;20222;-79
2022/09/10 01:36:52;;;;;;;7.00;4.38;;;;;21.80;100690.00;;;;5052293;28;20651;-80
2022/09/10 01:39:23;;;;;;;6.57;4.68;;;;;21.80;100692.00;;;;5075790;28;20732;-80
2022/09/10 01:41:53;;;;;;;5.00;4.10;;;;;21.80;100695.00;;;;5069429;28;20203;-80
2022/09/10 01:44:44;;;;;;;4.88;4.15;;;;;21.70;100695.00;;;;5077935;28;20207;-80
2022/09/10 01:47:19;;;;;;;4.45;3.92;;;;;21.80;100693.00;;;;5070201;28;20197;-80
2022/09/10 01:50:04;;;;;;;6.88;4.72;;;;;21.80;100690.00;;;;5075037;28;20201;-80
2022/09/10 01:52:42;;;;;;;12.35;5.97;;;;;21.80;100690.00;;;;5087753;28;20198;-80
2022/09/10 01:55:22;;;;;;;5.28;4.50;;;;;21.80;100693.00;;;;5082205;28;20579;-80
2022/09/10 01:57:55;;;;;;;4.82;4.43;;;;;21.80;100692.00;;;;5072097;28;20198;-80
2022/09/10 02:00:26;;;;;;;6.68;5.07;;;;;21.80;100689.00;;;;5075145;28;20202;-80
2022/09/10 02:02:59;;;;;;;5.53;4.45;;;;;21.80;100682.00;;;;5068497;28;20264;-80
2022/09/10 02:05:28;;;;;;;7.30;5.43;;;;;21.90;100675.00;;;;5078298;28;20278;-79
2022/09/10 02:07:59;;;;;;;6.63;5.25;;;;;21.90;100683.00;;;;5071410;28;20206;-80
2022/09/10 02:10:27;;;;;;;6.18;5.25;;;;;21.90;100682.00;;;;5073870;28;20206;-80
2022/09/10 02:12:55;;;;;;;7.68;5.80;;;;;21.90;100684.00;;;;5069113;28;20222;-79
2022/09/10 02:15:27;;;;;;;6.18;5.47;;;;;21.90;100678.00;;;;5087144;28;20709;-80
2022/09/10 02:17:55;;;;;;;12.13;6.28;;;;;21.90;100682.00;;;;5087156;28;20202;-80
2022/09/10 02:20:23;;;;;;;6.07;5.45;;;;;21.90;100682.00;;;;5082958;28;20610;-80
2022/09/10 02:22:55;;;;;;;9.20;5.63;;;;;21.90;100674.00;;;;5085809;28;20248;-81
2022/09/10 02:25:24;;;;;;;6.32;5.72;;;;;21.90;100680.00;;;;5087230;28;20285;-80
2022/09/10 02:27:53;;;;;;;6.75;6.05;;;;;21.90;100677.00;;;;5087221;28;20589;-80
2022/09/10 02:30:23;;;;;;;7.30;5.30;;;;;21.90;100678.00;;;;5070497;28;20566;-80
2022/09/10 02:32:50;;;;;;;6.93;6.00;;;;;21.90;100679.00;;;;5069458;28;20214;-80
2022/09/10 02:35:18;;;;;;;7.50;6.80;;;;;21.90;100678.00;;;;5067039;28;20198;-80
2022/09/10 02:37:45;;;;;;;6.25;5.60;;;;;21.90;100675.00;;;;5072197;28;20199;-80
2022/09/10 02:40:13;;;;;;;7.38;6.53;;;;;21.90;100676.00;;;;5069986;28;20210;-80
2022/09/10 02:42:45;;;;;;;7.28;6.40;;;;;22.00;100677.00;;;;5086561;28;20198;-80
2022/09/10 02:45:15;;;;;;;8.20;6.10;;;;;22.00;100679.00;;;;5084207;28;20205;-80
2022/09/10 02:47:44;;;;;;;6.65;5.95;;;;;22.00;100679.00;;;;5078654;28;20203;-80
2022/09/10 02:50:11;;;;;;;9.32;6.57;;;;;22.00;100680.00;;;;5070146;28;20191;-80
2022/09/10 02:52:38;;;;;;;9.23;6.65;;;;;22.00;100670.00;;;;5066939;28;20202;-80
2022/09/10 02:55:07;;;;;;;9.45;6.10;;;;;22.00;100676.00;;;;5080343;28;20204;-80
2022/09/10 02:57:34;;;;;;;8.13;6.80;;;;;22.00;100669.00;;;;5086744;28;20206;-81
2022/09/10 03:00:02;;;;;;;7.55;6.13;;;;;22.00;100673.00;;;;5085897;28;20224;-80
2022/09/10 03:02:30;;;;;;;7.80;6.95;;;;;22.00;100678.00;;;;5080280;28;20596;-81
2022/09/10 03:04:58;;;;;;;7.07;6.32;;;;;22.00;100669.00;;;;5073088;28;20210;-80
2022/09/10 03:07:26;;;;;;;7.60;6.57;;;;;22.00;100674.00;;;;5073134;28;20195;-81
2022/09/10 03:09:53;;;;;;;9.38;7.18;;;;;22.00;100674.00;;;;5075574;28;20203;-80
2022/09/10 03:12:20;;;;;;;8.80;7.80;;;;;22.00;100668.00;;;;5070596;28;20203;-80
2022/09/10 03:14:49;;;;;;;7.55;6.78;;;;;22.00;100671.00;;;;5086774;28;20333;-80
2022/09/10 03:17:16;;;;;;;8.35;6.60;;;;;22.00;100666.00;;;;5091281;28;20524;-80
2022/09/10 03:19:43;;;;;;;8.27;7.13;;;;;22.00;100664.00;;;;5081736;28;20728;-80
2022/09/10 03:22:12;;;;;;;11.48;7.38;;;;;22.00;100660.00;;;;5070938;28;20199;-80
2022/09/10 03:24:39;;;;;;;8.73;6.88;;;;;22.00;100658.00;;;;5088458;28;20205;-80
2022/09/10 03:27:07;;;;;;;8.45;7.25;;;;;22.00;100661.00;;;;5090149;28;20194;-80
2022/09/10 03:29:35;;;;;;;8.32;6.97;;;;;22.00;100655.00;;;;5085222;28;20235;-80
2022/09/10 03:32:02;;;;;;;7.22;6.43;;;;;22.10;100660.00;;;;5074156;28;20206;-80
2022/09/10 03:34:29;;;;;;;8.27;7.05;;;;;22.10;100658.00;;;;5078381;28;20219;-80
2022/09/10 03:36:57;;;;;;;9.00;7.28;;;;;22.00;100666.00;;;;5071487;28;20572;-80
2022/09/10 03:39:25;;;;;;;7.95;7.10;;;;;22.00;100649.00;;;;5086105;28;21423;-80
2022/09/10 03:41:53;;;;;;;7.97;7.18;;;;;22.00;100654.00;;;;5076616;28;20218;-80
2022/09/10 03:44:20;;;;;;;7.53;6.80;;;;;22.00;100655.00;;;;5086228;28;20194;-80
2022/09/10 03:46:49;;;;;;;9.05;6.65;;;;;22.10;100650.00;;;;5088468;28;20201;-81
2022/09/10 03:49:17;;;;;;;8.05;7.25;;;;;22.10;100651.00;;;;5073908;28;20202;-80
2022/09/10 03:51:44;;;;;;;10.48;8.20;;;;;22.10;100649.00;;;;5069788;28;20587;-80
2022/09/10 03:54:12;;;;;;;8.38;7.07;;;;;22.10;100651.00;;;;5086327;28;20699;-80
2022/09/10 03:56:41;;;;;;;8.90;7.07;;;;;22.10;100649.00;;;;5084482;28;20294;-80
2022/09/10 03:59:08;;;;;;;8.07;7.28;;;;;22.10;100660.00;;;;5079503;28;20198;-80
2022/09/10 04:01:36;;;;;;;7.53;6.75;;;;;22.10;100651.00;;;;5072922;28;20202;-80
2022/09/10 04:04:04;;;;;;;9.18;6.72;;;;;22.10;100655.00;;;;5070308;28;20199;-80
2022/09/10 04:06:32;;;;;;;8.35;7.53;;;;;22.10;100657.00;;;;5082520;28;20194;-80
2022/09/10 04:09:00;;;;;;;8.57;6.88;;;;;22.10;100653.00;;;;5077221;28;20732;-81
2022/09/10 04:11:27;;;;;;;10.77;6.53;;;;;22.10;100655.00;;;;5084961;28;20202;-81
2022/09/10 04:13:56;;;;;;;7.78;6.97;;;;;22.10;100647.00;;;;5081752;28;20226;-80
2022/09/10 04:16:23;;;;;;;8.77;7.45;;;;;22.10;100648.00;;;;5089462;28;20205;-80
2022/09/10 04:18:50;;;;;;;7.90;7.10;;;;;22.10;100647.00;;;;5086072;28;20195;-80
2022/09/10 04:21:19;;;;;;;7.88;7.10;;;;;22.10;100645.00;;;;5086241;28;20194;-80
2022/09/10 04:23:46;;;;;;;8.40;7.25;;;;;22.10;100647.00;;;;5084656;28;20198;-80
2022/09/10 04:26:14;;;;;;;7.20;6.35;;;;;22.10;100644.00;;;;5089124;28;20284;-81
2022/09/10 04:28:42;;;;;;;8.43;6.75;;;;;22.10;100636.00;;;;5081255;28;20603;-81
2022/09/10 04:31:11;;;;;;;7.43;6.72;;;;;22.10;100643.00;;;;5069973;28;20428;-80
2022/09/10 04:33:38;;;;;;;7.35;6.65;;;;;22.10;100647.00;;;;5086979;28;20222;-81
2022/09/10 04:36:06;;;;;;;7.55;6.75;;;;;22.10;100647.00;;;;5079373;28;20203;-81
2022/09/10 04:38:38;;;;;;;7.55;6.85;;;;;22.10;100644.00;;;;5078433;28;20562;-81
2022/09/10 04:41:06;;;;;;;7.65;6.45;;;;;22.10;100646.00;;;;5078269;28;20230;-80
2022/09/10 04:43:33;;;;;;;8.63;6.63;;;;;22.10;100652.00;;;;5073006;28;20207;-81
2022/09/10 04:46:00;;;;;;;7.68;6.50;;;;;22.10;100647.00;;;;5070281;28;20203;-81
2022/09/10 04:48:29;;;;;;;7.32;6.53;;;;;22.10;100656.00;;;;5074332;28;20199;-81
2022/09/10 04:50:56;;;;;;;7.10;6.40;;;;;22.20;100653.00;;;;5086543;28;20680;-81
2022/09/10 04:53:24;;;;;;;8.65;7.25;;;;;22.10;100656.00;;;;5074083;28;20199;-81
2022/09/10 04:55:51;;;;;;;6.97;6.28;;;;;22.10;100661.00;;;;5084559;28;20576;-81
2022/09/10 04:58:20;;;;;;;6.97;6.28;;;;;22.20;100658.00;;;;5085868;28;20512;-80
2022/09/10 05:00:47;;;;;;;7.85;6.18;;;;;22.20;100659.00;;;;5075287;28;20660;-80
2022/09/10 05:03:14;;;;;;;7.78;7.07;;;;;22.20;100660.00;;;;5074764;28;20225;-80
2022/09/10 05:05:44;;;;;;;8.13;6.80;;;;;22.10;100662.00;;;;5069683;28;20209;-80
2022/09/10 05:08:13;;;;;;;7.78;6.93;;;;;22.20;100660.00;;;;5086380;28;20575;-80
2022/09/10 05:10:41;;;;;;;7.18;6.15;;;;;22.10;100666.00;;;;5081610;28;20206;-80
2022/09/10 05:13:08;;;;;;;7.78;6.95;;;;;22.20;100660.00;;;;5069821;28;20195;-80
2022/09/10 05:15:40;;;;;;;7.45;6.22;;;;;22.20;100665.00;;;;5072716;28;20226;-80
2022/09/10 05:18:07;;;;;;;8.30;7.20;;;;;22.20;100662.00;;;;5071678;28;20194;-80
2022/09/10 05:20:35;;;;;;;8.27;6.30;;;;;22.20;100663.00;;;;5076042;28;20190;-80
2022/09/10 05:23:04;;;;;;;8.15;7.32;;;;;22.20;100657.00;;;;5068256;28;20226;-80
2022/09/10 05:25:33;;;;;;;8.77;6.78;;;;;22.20;100662.00;;;;5068495;28;20214;-80
2022/09/10 05:28:00;;;;;;;7.90;6.47;;;;;22.30;100661.00;;;;5068555;28;20226;-80
2022/09/10 05:30:31;;;;;;;7.50;6.80;;;;;22.30;100657.00;;;;5078713;28;20217;-80
2022/09/10 05:32:59;;;;;;;7.82;6.85;;;;;22.30;100659.00;;;;5071202;28;20309;-80
2022/09/10 05:35:27;;;;;;;8.55;7.72;;;;;22.30;100650.00;;;;5076777;28;20226;-80
2022/09/10 05:37:56;;;;;;;8.68;7.60;;;;;22.30;100655.00;;;;5084082;28;20676;-80
2022/09/10 05:40:25;;;;;;;6.78;5.65;;;;;22.30;100653.00;;;;5073004;28;20199;-80
2022/09/10 05:42:52;;;;;;;7.30;6.60;;;;;22.30;100661.00;;;;5070976;28;20209;-81
2022/09/10 05:45:20;;;;;;;7.22;6.50;;;;;22.30;100659.00;;;;5080494;28;20195;-81
2022/09/10 05:47:48;;;;;;;7.35;5.57;;;;;22.40;100659.00;;;;5072603;28;20657;-80
2022/09/10 05:50:16;;;;;;;7.18;6.47;;;;;22.40;100661.00;;;;5074749;28;20187;-81
2022/09/10 05:52:44;;;;;;;7.03;6.32;;;;;22.40;100660.00;;;;5073957;28;20268;-81
2022/09/10 05:55:11;;;;;;;7.53;6.82;;;;;22.40;100662.00;;;;5081174;28;20769;-80
2022/09/10 05:57:40;;;;;;;8.23;7.40;;;;;22.40;100668.00;;;;5073020;28;20756;-79
2022/09/10 06:00:09;;;;;;;8.20;6.63;;;;;22.40;100669.00;;;;5077857;28;20205;-80
2022/09/10 06:02:37;;;;;;;9.25;7.93;;;;;22.40;100678.00;;;;5070795;28;20236;-80
2022/09/10 06:05:04;;;;;;;9.05;7.80;;;;;22.40;100677.00;;;;5088179;28;20202;-80
2022/09/10 06:07:32;;;;;;;8.85;7.95;;;;;22.40;100676.00;;;;5087753;28;20208;-80
2022/09/10 06:09:59;;;;;;;9.20;8.30;;;;;22.50;100681.00;;;;5068159;28;20213;-80
2022/09/10 06:12:27;;;;;;;9.85;8.00;;;;;22.50;100673.00;;;;5067995;28;20664;-80
2022/09/10 06:14:55;;;;;;;7.93;6.80;;;;;22.40;100679.00;;;;5069655;28;20708;-80
2022/09/10 06:17:23;;;;;;;15.97;13.23;;;;;22.40;100685.00;;;;5077549;28;20464;-81
2022/09/10 06:19:50;;;;;;;12.65;9.93;;;;;22.60;100684.00;;;;5074831;28;20469;-81
2022/09/10 06:22:17;;;;;;;10.52;8.35;;;;;22.60;100679.00;;;;5075821;28;20198;-81
2022/09/10 06:24:48;;;;;;;11.15;8.52;;;;;22.60;100687.00;;;;5072767;28;20201;-81
2022/09/10 06:27:16;;;;;;;9.35;7.88;;;;;22.60;100684.00;;;;5088190;28;20205;-81
2022/09/10 06:29:43;;;;;;;8.93;7.68;;;;;22.60;100688.00;;;;5075619;28;20634;-82
2022/09/10 06:32:11;;;;;;;8.73;7.93;;;;;22.60;100685.00;;;;5081871;28;20195;-82
2022/09/10 06:34:39;;;;;;;9.30;7.32;;;;;22.60;100685.00;;;;5075787;28;20226;-82
2022/09/10 06:37:06;;;;;;;9.43;6.85;;;;;22.60;100682.00;;;;5083204;28;20198;-81
2022/09/10 06:39:33;;;;;;;8.02;7.20;;;;;22.70;100683.00;;;;5080830;28;20191;-82
2022/09/10 06:42:00;;;;;;;8.10;6.43;;;;;22.70;100681.00;;;;5071473;28;20214;-78
2022/09/10 06:44:28;;;;;;;7.95;6.85;;;;;22.70;100683.00;;;;5076397;28;20193;-80
2022/09/10 06:46:55;;;;;;;9.23;7.72;;;;;22.70;100683.00;;;;5074765;28;20198;-79
2022/09/10 06:49:24;;;;;;;8.18;7.22;;;;;22.70;100699.00;;;;5084024;28;20611;-79
2022/09/10 06:51:52;;;;;;;7.47;6.70;;;;;22.70;100696.00;;;;5078769;28;20268;-79
2022/09/10 06:54:19;;;;;;;8.98;7.07;;;;;22.70;100705.00;;;;5077408;28;20604;-80
2022/09/10 06:56:48;;;;;;;7.13;6.43;;;;;22.70;100705.00;;;;5081036;28;20973;-80
2022/09/10 06:59:17;;;;;;;6.57;5.97;;;;;22.70;100710.00;;;;5083125;28;20197;-80
2022/09/10 07:01:46;;;;;;;6.95;6.25;;;;;22.80;100711.00;;;;5083772;28;20590;-80
2022/09/10 07:04:13;;;;;;;7.05;6.35;;;;;22.80;100714.00;;;;5077793;28;20205;-79
2022/09/10 07:06:44;;;;;;;10.07;7.05;;;;;22.80;100718.00;;;;5078919;28;20560;-79
2022/09/10 07:09:11;;;;;;;7.32;6.63;;;;;22.80;100722.00;;;;5086178;28;20202;-79
2022/09/10 07:11:39;;;;;;;6.65;6.05;;;;;22.80;100719.00;;;;5084509;28;20648;-77
2022/09/10 07:14:06;;;;;;;7.97;6.32;;;;;22.80;100720.00;;;;5086293;28;20210;-80
2022/09/10 07:16:34;;;;;;;7.30;6.57;;;;;22.90;100725.00;;;;5094268;28;20226;-79
2022/09/10 07:19:01;;;;;;;7.00;5.93;;;;;22.90;100726.00;;;;5095468;28;20186;-81
2022/09/10 07:21:29;;;;;;;8.10;6.50;;;;;22.90;100734.00;;;;5076966;28;20237;-82
2022/09/10 07:24:00;;;;;;;8.50;6.65;;;;;22.90;100723.00;;;;5081859;28;20198;-81
2022/09/10 07:26:27;;;;;;;8.68;5.65;;;;;22.90;100726.00;;;;5077113;28;20226;-81
2022/09/10 07:28:55;;;;;;;6.78;5.60;;;;;23.00;100731.00;;;;5091084;28;20229;-80
2022/09/10 07:31:24;;;;;;;7.13;6.10;;;;;22.90;100724.00;;;;5081236;28;20211;-81
2022/09/10 07:33:51;;;;;;;6.13;5.53;;;;;23.00;100731.00;;;;5079606;28;20676;-80
2022/09/10 07:36:19;;;;;;;7.45;6.65;;;;;23.00;100728.00;;;;5080329;28;20226;-80
2022/09/10 07:38:46;;;;;;;6.70;5.55;;;;;23.00;100739.00;;;;5089053;28;20205;-81
2022/09/10 07:41:15;;;;;;;6.72;5.88;;;;;23.00;100733.00;;;;5083264;28;20187;-82
2022/09/10 07:43:43;;;;;;;8.60;5.97;;;;;23.10;100735.00;;;;5080290;28;20560;-81
2022/09/10 07:46:13;;;;;;;7.18;6.07;;;;;23.10;100734.00;;;;5080923;28;20199;-80
2022/09/10 07:48:40;;;;;;;8.73;6.57;;;;;23.10;100746.00;;;;5075824;28;20199;-81
2022/09/10 07:51:10;;;;;;;6.05;5.45;;;;;23.10;100743.00;;;;5073908;28;20206;-81
2022/09/10 07:53:38;;;;;;;6.47;5.88;;;;;23.20;100748.00;;;;5074954;28;20191;-80
2022/09/10 07:56:07;;;;;;;5.03;4.47;;;;;23.20;100742.00;;;;5079138;28;20229;-81
2022/09/10 07:58:37;;;;;;;7.53;5.82;;;;;23.20;100745.00;;;;5085697;28;20194;-79
2022/09/10 08:01:10;;;;;;;8.07;5.43;;;;;23.20;100748.00;;;;5086770;28;20198;-80
2022/09/10 08:03:38;;;;;;;8.00;5.55;;;;;23.30;100749.00;;;;5080738;28;20206;-80
2022/09/10 08:06:08;;;;;;;9.80;5.80;;;;;23.30;100752.00;;;;5089785;28;20660;-79
2022/09/10 08:08:38;;;;;;;5.47;4.97;;;;;23.40;100758.00;;;;5088614;28;20213;-80
2022/09/10 08:11:10;;;;;;;5.57;5.00;;;;;23.40;100763.00;;;;5076512;28;20202;-81
2022/09/10 08:13:40;;;;;;;6.18;5.45;;;;;23.50;100760.00;;;;5081419;28;20668;-80
2022/09/10 08:16:08;;;;;;;5.85;5.30;;;;;23.60;100756.00;;;;5069829;28;20292;-80
2022/09/10 08:18:36;;;;;;;7.95;5.63;;;;;23.70;100765.00;;;;5069830;28;20286;-80
2022/09/10 08:21:04;;;;;;;6.70;5.68;;;;;23.80;100774.00;;;;5078770;28;20201;-80
2022/09/10 08:23:32;;;;;;;5.18;4.68;;;;;23.90;100785.00;;;;5085013;28;20190;-81
2022/09/10 08:26:00;;;;;;;5.68;4.63;;;;;23.90;100776.00;;;;5083289;28;20191;-81
2022/09/10 08:28:28;;;;;;;4.60;4.20;;;;;24.00;100790.00;;;;5083002;28;20229;-81
2022/09/10 08:31:03;;;;;;;4.75;4.25;;;;;24.00;100785.00;;;;5078884;28;20233;-81
2022/09/10 08:33:31;;;;;;;5.57;4.95;;;;;24.10;100792.00;;;;5070459;28;20212;-80
2022/09/10 08:35:59;;;;;;;4.68;4.13;;;;;24.10;100797.00;;;;5079304;28;20318;-81
2022/09/10 08:38:30;;;;;;;5.03;4.20;;;;;24.20;100793.00;;;;5074126;28;20198;-80
2022/09/10 08:40:58;;;;;;;4.38;3.80;;;;;24.20;100800.00;;;;5083287;28;20198;-81
2022/09/10 08:43:32;;;;;;;4.28;3.88;;;;;24.20;100802.00;;;;5081696;28;20206;-80
2022/09/10 08:46:04;;;;;;;4.72;3.38;;;;;24.20;100804.00;;;;5076331;28;20657;-80
2022/09/10 08:48:34;;;;;;;6.38;4.97;;;;;24.30;100802.00;;;;5079062;28;20198;-80
2022/09/10 08:51:08;;;;;;;5.18;2.92;;;;;24.30;100806.00;;;;5069768;28;20274;-80
2022/09/10 08:53:46;;;;;;;4.20;3.05;;;;;24.30;100808.00;;;;5078721;28;20202;-80
2022/09/10 08:56:16;;;;;;;5.32;3.67;;;;;24.50;100804.00;;;;5086878;28;20352;-79
2022/09/10 08:58:49;;;;;;;6.68;3.80;;;;;24.60;100807.00;;;;5089391;28;20194;-79
2022/09/10 09:01:27;;;;;;;5.10;3.00;;;;;24.70;100813.00;;;;5073048;28;20199;-80
2022/09/10 09:03:57;;;;;;;3.65;2.95;;;;;24.90;100818.00;;;;5069408;28;20195;-80
2022/09/10 09:06:34;;;;;;;3.95;2.90;;;;;25.00;100819.00;;;;5088707;28;20264;-80
2022/09/10 09:09:03;;;;;;;3.15;2.50;;;;;25.20;100825.00;;;;5086565;28;20194;-80
2022/09/10 09:11:40;;;;;;;4.30;2.42;;;;;25.20;100829.00;;;;5075219;28;20213;-79
2022/09/10 09:14:22;;;;;;;2.55;2.28;;;;;25.20;100826.00;;;;5083481;28;20217;-80
2022/09/10 09:17:06;;;;;;;3.90;2.67;;;;;25.30;100831.00;;;;5074963;28;20226;-81
2022/09/10 09:19:34;;;;;;;3.78;2.50;;;;;25.40;100838.00;;;;5076815;28;20194;-81
2022/09/10 09:22:11;;;;;;;3.08;2.53;;;;;25.30;100834.00;;;;5073512;28;20195;-80
2022/09/10 09:24:49;;;;;;;3.20;2.28;;;;;25.30;100834.00;;;;5076704;28;20202;-79
2022/09/10 09:27:18;;;;;;;4.20;2.00;;;;;25.40;100834.00;;;;5079209;28;20190;-81
2022/09/10 09:29:51;;;;;;;2.25;1.90;;;;;25.30;100845.00;;;;5078576;28;20254;-79
2022/09/10 09:32:22;;;;;;;2.70;2.03;;;;;25.30;100845.00;;;;5074306;28;20202;-79
2022/09/10 09:34:53;;;;;;;1.73;1.35;;;;;25.20;100843.00;;;;5069708;28;20202;-79
2022/09/10 09:37:24;;;;;;;2.08;1.83;;;;;25.20;100848.00;;;;5080542;28;20195;-79
2022/09/10 09:40:06;;;;;;;2.70;1.55;;;;;25.10;100837.00;;;;5073909;28;20213;-79
2022/09/10 09:42:43;;;;;;;1.92;1.73;;;;;25.10;100843.00;;;;5078649;28;20650;-79
2022/09/10 09:45:23;;;;;;;2.50;1.45;;;;;25.10;100844.00;;;;5073744;28;20919;-79
2022/09/10 09:47:54;;;;;;;3.22;2.03;;;;;25.10;100848.00;;;;5081408;28;20194;-79
2022/09/10 09:50:22;;;;;;;4.18;2.08;;;;;25.10;100852.00;;;;5085842;28;20257;-79
2022/09/10 09:52:53;;;;;;;4.70;2.20;;;;;25.10;100851.00;;;;5072316;28;20212;-78
2022/09/10 09:55:29;;;;;;;2.15;1.90;;;;;25.10;100860.00;;;;5080902;28;20221;-79
2022/09/10 09:58:43;;;;;;;1.92;1.83;;;;;25.00;100862.00;;;;5073259;28;20214;-81
2022/09/10 10:01:18;;;;;;;2.95;1.52;;;;;25.10;100871.00;;;;5068754;28;20695;-81
2022/09/10 10:04:00;;;;;;;2.65;1.80;;;;;25.10;100875.00;;;;5079979;28;20189;-81
2022/09/10 10:06:30;;;;;;;2.75;1.73;;;;;25.10;100866.00;;;;5078410;28;20198;-81
2022/09/10 10:09:04;;;;;;;1.90;1.80;;;;;25.10;100875.00;;;;5084437;28;20195;-81
2022/09/10 10:11:45;;;;;;;1.45;1.35;;;;;25.00;100872.00;;;;5074935;28;20212;-78
2022/09/10 10:14:21;;;;;;;2.10;1.52;;;;;25.10;100876.00;;;;5080059;28;20203;-78
2022/09/10 10:16:51;;;;;;;2.08;1.48;;;;;25.10;100870.00;;;;5076796;28;20232;-78
2022/09/10 10:19:36;;;;;;;1.70;1.45;;;;;25.00;100872.00;;;;5073916;28;20202;-78
2022/09/10 10:22:26;;;;;;;2.33;1.83;;;;;25.10;100872.00;;;;5080440;28;20200;-79
2022/09/10 10:24:54;;;;;;;2.13;1.92;;;;;25.30;100868.00;;;;5070570;28;20214;-79
2022/09/10 10:27:34;;;;;;;4.13;1.88;;;;;25.40;100871.00;;;;5073427;28;20199;-79
2022/09/10 10:30:06;;;;;;;1.88;1.52;;;;;25.70;100880.00;;;;5076709;28;20236;-79
2022/09/10 10:32:43;;;;;;;2.80;2.25;;;;;25.90;100885.00;;;;5069638;28;20205;-79
2022/09/10 10:35:40;;;;;;;2.10;1.73;;;;;26.00;100886.00;;;;5079557;28;20205;-79
2022/09/10 10:38:27;;;;;;;2.78;2.10;;;;;26.10;100892.00;;;;5064168;28;20234;-79
2022/09/10 10:41:16;;;;;;;2.05;1.65;;;;;26.30;100893.00;;;;5073571;28;20203;-80
2022/09/10 10:43:52;;;;;;;1.90;1.70;;;;;26.40;100901.00;;;;5068893;28;20569;-81
2022/09/10 10:46:21;;;;;;;2.90;2.25;;;;;26.40;100901.00;;;;5078628;28;20190;-81
2022/09/10 10:49:02;;;;;;;3.40;2.17;;;;;26.40;100902.00;;;;5087744;28;20691;-80
2022/09/10 10:51:41;;;;;;;2.67;2.47;;;;;26.50;100907.00;;;;5076279;28;20201;-81
2022/09/10 10:54:24;;;;;;;3.25;2.95;;;;;26.50;100918.00;;;;5083380;28;20217;-81
2022/09/10 10:57:03;;;;;;;3.70;3.35;;;;;26.50;100918.00;;;;5074659;28;20227;-82
2022/09/10 10:59:44;;;;;;;3.80;3.47;;;;;26.50;100918.00;;;;5084400;28;20202;-83
2022/09/10 11:02:17;;;;;;;3.28;2.97;;;;;26.50;100929.00;;;;5080257;28;20546;-82
2022/09/10 11:04:49;;;;;;;3.13;2.90;;;;;26.50;100932.00;;;;5075922;28;20588;-82
2022/09/10 11:07:24;;;;;;;4.97;2.83;;;;;26.40;100935.00;;;;5074970;28;20696;-82
2022/09/10 11:09:57;;;;;;;3.60;3.13;;;;;26.40;100936.00;;;;5076329;28;20209;-82
2022/09/10 11:12:31;;;;;;;3.47;3.17;;;;;26.40;100932.00;;;;5077748;28;20657;-81
2022/09/10 11:15:02;;;;;;;6.90;4.22;;;;;26.30;100943.00;;;;5081886;28;20202;-84
2022/09/10 11:17:37;;;;;;;5.35;4.03;;;;;26.30;100927.00;;;;5076423;28;20227;-82
2022/09/10 11:20:12;;;;;;;5.20;4.25;;;;;26.20;100934.00;;;;5081757;28;20197;-79
2022/09/10 11:22:47;;;;;;;5.32;4.13;;;;;26.10;100939.00;;;;5080915;28;20209;-81
2022/09/10 11:25:22;;;;;;;5.75;4.78;;;;;26.10;100940.00;;;;5088057;28;20587;-83
2022/09/10 11:27:54;;;;;;;4.18;3.58;;;;;26.10;100944.00;;;;5082927;28;20196;-80
2022/09/10 11:30:21;;;;;;;4.30;3.83;;;;;26.00;100949.00;;;;5070387;28;20215;-80
2022/09/10 11:32:55;;;;;;;4.80;3.78;;;;;26.00;100937.00;;;;5075029;28;20213;-80
2022/09/10 11:35:27;;;;;;;5.72;4.20;;;;;26.00;100949.00;;;;5077464;28;20203;-81
2022/09/10 11:38:06;;;;;;;5.40;4.15;;;;;26.00;100943.00;;;;5089706;28;20656;-80
2022/09/10 11:40:39;;;;;;;4.38;3.63;;;;;26.10;100943.00;;;;5091000;28;20747;-80
2022/09/10 11:43:11;;;;;;;3.95;3.55;;;;;26.20;100933.00;;;;5089244;28;20202;-82
2022/09/10 11:45:45;;;;;;;5.28;3.80;;;;;26.30;100951.00;;;;5084392;28;20191;-82
2022/09/10 11:48:19;;;;;;;3.90;3.60;;;;;26.40;100949.00;;;;5084654;28;20638;-85
2022/09/10 11:50:52;;;;;;;3.38;2.60;;;;;26.40;100956.00;;;;5071212;28;20200;-81
2022/09/10 11:53:23;;;;;;;2.88;2.58;;;;;26.40;100947.00;;;;5070105;28;20687;-81
2022/09/10 11:56:26;;;;;;;2.88;2.58;;;;;26.30;100946.00;;;;5070417;28;20230;-80
2022/09/10 11:59:05;;;;;;;2.78;2.55;;;;;26.40;100956.00;;;;5075498;28;20193;-81
2022/09/10 12:01:53;;;;;;;2.13;1.90;;;;;26.30;100961.00;;;;5090193;28;20216;-81
2022/09/10 12:04:36;;;;;;;1.67;1.58;;;;;26.30;100966.00;;;;5074740;28;20203;-81
2022/09/10 12:07:16;;;;;;;2.15;1.95;;;;;26.40;100971.00;;;;5069873;28;20199;-80
2022/09/10 12:09:55;;;;;;;2.60;2.20;;;;;26.40;100967.00;;;;5075146;28;20660;-80
2022/09/10 12:12:30;;;;;;;2.30;2.10;;;;;26.40;100972.00;;;;5069955;28;20187;-80
2022/09/10 12:14:58;;;;;;;2.25;1.80;;;;;26.40;100971.00;;;;5070671;28;20209;-81
2022/09/10 12:17:31;;;;;;;1.73;1.63;;;;;26.40;100979.00;;;;5076828;28;20222;-80
2022/09/10 12:20:00;;;;;;;2.10;1.35;;;;;26.50;100977.00;;;;5087564;28;20209;-80
2022/09/10 12:22:30;;;;;;;1.55;1.30;;;;;26.50;100980.00;;;;5080373;28;20199;-80
2022/09/10 12:25:04;;;;;;;2.20;1.98;;;;;26.40;100984.00;;;;5080683;28;20202;-79
2022/09/10 12:27:46;;;;;;;3.25;1.95;;;;;26.30;100990.00;;;;5084749;28;20205;-79
2022/09/10 12:30:57;;;;;;;1.50;1.40;;;;;26.30;100990.00;;;;5089664;28;20552;-79